Time;durP1;ratioP1;P1;durP2;ratioP2;P2;SDS_P1;SDS_P2;PMS_P1;PMS_P2;Temp;Humidity;BMP_temperature;BMP_pressure;BME280_temperature;BME280_humidity;BME280_pressure;Samples;Min_cycle;Max_cycle;Signal;HPM_P1;HPM_P2
2022/09/06 00:02:17;;;;;;;3.87;1.82;;;;;;;6.26;100.00;100946.43;1718557;83;21036;-66
2022/09/06 00:04:45;;;;;;;3.22;2.05;;;;;;;6.23;100.00;100949.05;1718430;83;21046;-65
2022/09/06 00:07:12;;;;;;;2.65;1.80;;;;;;;6.17;100.00;100941.25;1718313;83;21116;-66
2022/09/06 00:09:39;;;;;;;3.20;2.00;;;;;;;6.14;100.00;100946.48;1718198;83;22188;-66
2022/09/06 00:12:07;;;;;;;3.25;2.15;;;;;;;6.09;100.00;100947.38;1718117;83;21078;-64
2022/09/06 00:14:35;;;;;;;3.00;2.08;;;;;;;6.07;100.00;100951.77;1718285;83;21055;-69
2022/09/06 00:17:01;;;;;;;4.87;2.25;;;;;;;6.03;100.00;100951.80;1718647;83;21554;-66
2022/09/06 00:19:28;;;;;;;4.55;2.33;;;;;;;6.00;100.00;100946.11;1718425;83;21526;-68
2022/09/06 00:21:54;;;;;;;3.15;2.22;;;;;;;5.97;100.00;100943.97;1718908;83;21723;-66
2022/09/06 00:24:22;;;;;;;3.58;2.20;;;;;;;5.94;100.00;100947.47;1718383;83;21057;-66
2022/09/06 00:26:48;;;;;;;3.60;2.08;;;;;;;5.91;100.00;100946.13;1718692;82;21049;-66
2022/09/06 00:29:15;;;;;;;6.10;2.20;;;;;;;5.90;100.00;100947.02;1718184;83;21044;-66
2022/09/06 00:31:42;;;;;;;5.33;2.27;;;;;;;5.87;100.00;100946.59;1718229;83;21526;-65
2022/09/06 00:34:08;;;;;;;4.60;2.40;;;;;;;5.85;100.00;100931.80;1717949;83;21553;-64
2022/09/06 00:36:35;;;;;;;4.22;2.50;;;;;;;5.83;100.00;100940.08;1717999;83;21048;-65
2022/09/06 00:39:02;;;;;;;3.37;2.10;;;;;;;5.83;100.00;100941.39;1718440;83;21045;-66
2022/09/06 00:41:28;;;;;;;4.05;2.10;;;;;;;5.85;100.00;100942.25;1718304;83;21096;-65
2022/09/06 00:43:55;;;;;;;2.67;2.22;;;;;;;5.84;100.00;100949.65;1718389;83;21104;-66
2022/09/06 00:46:26;;;;;;;4.12;2.25;;;;;;;5.83;100.00;100950.09;1718062;83;21150;-66
2022/09/06 00:49:00;;;;;;;3.72;2.17;;;;;;;5.82;100.00;100950.09;1718153;83;21108;-66
2022/09/06 00:51:28;;;;;;;6.15;2.47;;;;;;;5.78;100.00;100949.25;1718560;83;21100;-67
2022/09/06 00:53:54;;;;;;;7.55;2.87;;;;;;;5.73;100.00;100954.05;1717812;83;21100;-65
2022/09/06 00:56:21;;;;;;;3.87;2.33;;;;;;;5.66;100.00;100952.79;1718272;83;21603;-65
2022/09/06 00:58:47;;;;;;;4.78;2.30;;;;;;;5.59;100.00;100945.84;1718339;83;21329;-66
2022/09/06 01:01:15;;;;;;;3.98;1.95;;;;;;;5.50;100.00;100953.72;1718451;83;21498;-66
2022/09/06 01:03:41;;;;;;;7.20;1.92;;;;;;;5.43;100.00;100948.08;1718165;83;21030;-66
2022/09/06 01:06:25;;;;;;;3.12;1.87;;;;;;;5.41;100.00;100952.00;1718203;83;21552;-65
2022/09/06 01:09:24;;;;;;;9.40;2.17;;;;;;;5.39;100.00;100952.88;1717958;83;21205;-66
2022/09/06 01:12:28;;;;;;;6.10;2.80;;;;;;;5.34;100.00;100951.58;1718074;83;21319;-65
2022/09/06 01:15:09;;;;;;;4.03;2.40;;;;;;;5.30;100.00;100955.52;1718290;83;21098;-66
2022/09/06 01:18:08;;;;;;;3.77;2.50;;;;;;;5.26;100.00;100948.96;1702952;83;21061;-65
2022/09/06 01:21:07;;;;;;;4.05;2.20;;;;;;;5.20;100.00;100951.61;1631288;83;21663;-64
2022/09/06 01:24:03;;;;;;;6.60;2.30;;;;;;;5.18;100.00;100956.41;1678962;83;21021;-66
2022/09/06 01:27:12;;;;;;;5.25;2.15;;;;;;;5.13;100.00;100956.41;1712454;83;21219;-66
2022/09/06 01:29:51;;;;;;;5.67;2.10;;;;;;;5.13;100.00;100955.11;1712524;83;20979;-66
2022/09/06 01:32:53;;;;;;;4.85;2.33;;;;;;;5.07;100.00;100949.88;1712554;83;21029;-66
2022/09/06 01:35:37;;;;;;;3.58;2.25;;;;;;;5.08;100.00;100959.88;1713136;83;21022;-66
2022/09/06 01:38:03;;;;;;;2.85;2.22;;;;;;;5.05;100.00;100950.31;1712682;83;21104;-66
2022/09/06 01:40:34;;;;;;;3.37;2.47;;;;;;;5.05;100.00;100955.54;1712682;83;21251;-65
2022/09/06 01:42:59;;;;;;;5.80;1.82;;;;;;;5.06;100.00;100958.57;1712340;83;21062;-67
2022/09/06 01:45:57;;;;;;;6.22;2.45;;;;;;;5.07;100.00;100962.94;1712933;83;21105;-67
2022/09/06 01:48:50;;;;;;;4.30;2.27;;;;;;;5.07;100.00;100966.86;1703405;83;21096;-67
2022/09/06 01:51:44;;;;;;;6.50;2.40;;;;;;;5.03;100.00;100963.81;1712967;83;21061;-65
2022/09/06 01:54:37;;;;;;;4.37;2.85;;;;;;;5.01;100.00;100965.55;1685057;83;21177;-66
2022/09/06 01:57:10;;;;;;;5.30;2.33;;;;;;;4.99;100.00;100965.98;1712776;83;21069;-65
2022/09/06 01:59:44;;;;;;;10.05;2.00;;;;;;;4.98;100.00;100964.25;1712687;83;21530;-67
2022/09/06 02:02:20;;;;;;;5.72;2.50;;;;;;;4.95;100.00;100966.88;1713076;82;21037;-66
2022/09/06 02:05:00;;;;;;;4.83;2.17;;;;;;;4.94;100.00;100965.12;1712659;83;21049;-65
2022/09/06 02:07:29;;;;;;;5.55;2.50;;;;;;;4.91;100.00;100965.99;1713025;83;21219;-66
2022/09/06 02:10:12;;;;;;;3.75;2.30;;;;;;;4.89;100.00;100962.95;1712590;83;21684;-65
2022/09/06 02:12:41;;;;;;;3.42;2.60;;;;;;;4.84;100.00;100967.73;1712545;83;21030;-66
2022/09/06 02:15:21;;;;;;;3.55;2.27;;;;;;;4.82;100.00;100966.86;1712679;83;21022;-65
2022/09/06 02:18:04;;;;;;;3.02;2.20;;;;;;;4.81;100.00;100969.49;1712870;83;21590;-66
2022/09/06 02:20:35;;;;;;;16.02;2.75;;;;;;;4.78;100.00;100975.55;1712806;83;21558;-66
2022/09/06 02:23:05;;;;;;;3.37;2.33;;;;;;;4.72;100.00;100976.88;1712405;83;21019;-66
2022/09/06 02:25:41;;;;;;;4.20;2.40;;;;;;;4.69;100.00;100981.20;1704804;84;21089;-66
2022/09/06 02:28:08;;;;;;;5.22;2.47;;;;;;;4.65;100.00;100976.84;1704533;84;21077;-66
2022/09/06 02:30:41;;;;;;;9.63;2.58;;;;;;;4.60;100.00;100978.15;1684948;84;21069;-66
2022/09/06 02:33:12;;;;;;;3.05;1.92;;;;;;;4.60;100.00;100971.63;1704561;84;21248;-67
2022/09/06 02:37:59;;;;;;;3.20;2.50;;;;;;;4.63;100.00;100974.26;1814354;79;28064;-66
2022/09/06 02:40:26;;;;;;;5.87;2.67;;;;;;;4.60;100.00;100969.02;1787558;80;20964;-65
2022/09/06 02:42:53;;;;;;;6.53;2.90;;;;;;;4.56;100.00;100979.04;1756731;80;21093;-66
2022/09/06 02:45:19;;;;;;;6.47;2.70;;;;;;;4.56;100.00;100981.20;1787487;80;20985;-66
2022/09/06 02:47:46;;;;;;;3.40;2.35;;;;;;;4.56;100.00;100981.64;1787206;80;21108;-66
2022/09/06 02:50:14;;;;;;;7.17;2.75;;;;;;;4.53;100.00;100979.02;1787438;80;21094;-65
2022/09/06 02:52:41;;;;;;;3.08;2.33;;;;;;;4.53;100.00;100979.02;1787514;80;21103;-67
2022/09/06 02:55:08;;;;;;;7.22;2.37;;;;;;;4.48;100.00;100980.75;1787442;80;21794;-66
2022/09/06 02:57:34;;;;;;;5.22;2.77;;;;;;;4.43;100.00;100974.66;1787424;80;21026;-67
2022/09/06 03:00:03;;;;;;;10.00;3.02;;;;;;;4.40;100.00;100969.88;1787484;80;21104;-66
2022/09/06 03:02:30;;;;;;;7.55;2.83;;;;;;;4.40;100.00;100979.00;1756402;81;21657;-66
2022/09/06 03:04:57;;;;;;;3.77;2.50;;;;;;;4.36;100.00;100978.55;1756286;81;21013;-66
2022/09/06 03:07:23;;;;;;;3.45;2.27;;;;;;;4.36;100.00;100981.60;1755908;81;21618;-66
2022/09/06 03:09:50;;;;;;;3.60;2.20;;;;;;;4.33;100.00;100977.26;1754033;81;21100;-64
2022/09/06 03:12:17;;;;;;;4.03;2.08;;;;;;;4.29;100.00;100980.72;1754068;81;21056;-65
2022/09/06 03:14:44;;;;;;;5.65;2.60;;;;;;;4.27;100.00;100981.14;1754150;81;21045;-65
2022/09/06 03:17:10;;;;;;;3.67;2.30;;;;;;;4.27;100.00;100985.05;1754319;81;21552;-66
2022/09/06 03:19:37;;;;;;;4.62;2.72;;;;;;;4.25;100.00;100988.09;1754096;81;21847;-66
2022/09/06 03:22:04;;;;;;;5.92;2.67;;;;;;;4.25;100.00;100992.00;1754407;81;21104;-66
2022/09/06 03:24:30;;;;;;;2.90;2.15;;;;;;;4.26;100.00;100983.77;1754135;81;21049;-66
2022/09/06 03:26:57;;;;;;;6.70;2.35;;;;;;;4.22;100.00;100981.57;1754185;81;21009;-65
2022/09/06 03:29:23;;;;;;;4.00;2.50;;;;;;;4.21;100.00;100987.66;1754148;81;21040;-66
2022/09/06 03:31:50;;;;;;;4.97;2.72;;;;;;;4.19;100.00;100994.61;1754053;81;21125;-65
2022/09/06 03:34:17;;;;;;;5.20;2.45;;;;;;;4.19;100.00;100996.78;1754031;81;20997;-66
2022/09/06 03:36:43;;;;;;;4.70;2.47;;;;;;;4.17;100.00;100991.12;1751401;81;21013;-66
2022/09/06 03:39:10;;;;;;;3.92;2.77;;;;;;;4.22;100.00;101006.34;1746411;82;21009;-66
2022/09/06 03:41:37;;;;;;;5.33;2.10;;;;;;;4.23;100.00;101005.46;1746369;82;21017;-66
2022/09/06 03:44:04;;;;;;;4.53;2.22;;;;;;;4.27;100.00;101005.91;1746273;82;21139;-67
2022/09/06 03:46:30;;;;;;;9.35;2.30;;;;;;;4.32;100.00;101006.79;1746637;82;21040;-67
2022/09/06 03:48:57;;;;;;;3.08;2.17;;;;;;;4.40;100.00;101003.78;1746094;82;21188;-66
2022/09/06 03:51:26;;;;;;;5.45;2.45;;;;;;;4.49;100.00;101010.77;1746301;82;21071;-65
2022/09/06 03:53:53;;;;;;;5.62;2.83;;;;;;;4.61;100.00;101008.61;1751282;80;21053;-67
2022/09/06 03:56:19;;;;;;;6.12;2.33;;;;;;;4.70;100.00;101003.39;1776432;80;21840;-66
2022/09/06 03:58:46;;;;;;;3.87;2.40;;;;;;;4.77;100.00;101005.14;1776713;80;21026;-66
2022/09/06 04:01:12;;;;;;;6.67;2.65;;;;;;;4.84;100.00;101009.48;1776687;80;21057;-66
2022/09/06 04:03:39;;;;;;;5.00;2.37;;;;;;;5.18;100.00;101016.47;1776521;80;21561;-64
2022/09/06 04:06:05;;;;;;;6.97;2.33;;;;;;;5.72;100.00;101025.06;1776543;80;21005;-68
2022/09/06 04:08:32;;;;;;;10.10;2.60;;;;;;;5.97;100.00;101003.66;1776604;80;21061;-68
2022/09/06 04:11:03;;;;;;;5.78;2.58;;;;;;;6.54;100.00;101024.30;1776351;80;21584;-68
2022/09/06 04:13:29;;;;;;;4.17;2.45;;;;;;;7.08;100.00;101025.22;1745926;82;21080;-66
2022/09/06 04:15:56;;;;;;;8.28;2.50;;;;;;;7.58;100.00;101017.77;1745845;82;21052;-68
2022/09/06 04:18:24;;;;;;;4.97;2.55;;;;;;;7.85;100.00;101023.16;1745626;82;21040;-67
2022/09/06 04:20:52;;;;;;;7.00;2.45;;;;;;;8.32;100.00;101020.37;1745528;82;21623;-68
2022/09/06 04:23:19;;;;;;;3.90;2.30;;;;;;;8.82;100.00;101014.88;1745747;82;21261;-67
2022/09/06 04:25:47;;;;;;;3.15;2.00;;;;;;;9.10;99.66;101020.54;1745477;82;21856;-66
2022/09/06 04:28:14;;;;;;;4.80;2.60;;;;;;;9.30;98.44;101018.03;1745820;82;21073;-67
2022/09/06 04:30:41;;;;;;;3.00;2.20;;;;;;;9.52;95.95;101023.75;1745564;82;21005;-67
2022/09/06 04:33:09;;;;;;;4.33;2.30;;;;;;;9.49;94.68;101022.51;1745443;82;22145;-68
2022/09/06 04:35:36;;;;;;;3.92;2.45;;;;;;;9.41;93.92;101019.58;1745677;82;21080;-68
2022/09/06 04:38:03;;;;;;;3.62;2.50;;;;;;;9.29;93.63;101017.14;1741516;82;21045;-67
2022/09/06 04:40:30;;;;;;;3.08;2.27;;;;;;;9.12;93.75;101019.21;1740158;82;21041;-68
2022/09/06 04:42:57;;;;;;;5.45;2.52;;;;;;;8.95;93.71;101024.30;1740092;82;21076;-67
2022/09/06 04:45:23;;;;;;;3.55;2.72;;;;;;;8.71;94.50;101020.73;1740320;82;21533;-65
2022/09/06 04:47:50;;;;;;;5.05;2.87;;;;;;;8.51;95.78;101022.33;1740055;82;21029;-67
2022/09/06 04:50:17;;;;;;;9.00;2.98;;;;;;;8.38;96.88;101017.68;1740682;82;21025;-65
2022/09/06 04:52:46;;;;;;;6.12;2.72;;;;;;;8.44;98.74;101021.55;1739957;82;21001;-67
2022/09/06 04:55:13;;;;;;;6.10;2.98;;;;;;;8.58;99.59;101020.92;1762675;81;21143;-67
2022/09/06 04:57:40;;;;;;;6.95;3.58;;;;;;;8.78;99.90;101015.80;1770885;81;22046;-68
2022/09/06 05:00:08;;;;;;;8.55;3.98;;;;;;;8.88;99.18;101016.52;1770897;80;21029;-65
2022/09/06 05:02:35;;;;;;;9.43;3.70;;;;;;;8.87;99.69;101024.85;1770628;81;20998;-65
2022/09/06 05:05:03;;;;;;;9.93;3.62;;;;;;;8.89;100.00;101029.64;1770584;81;21002;-67
2022/09/06 05:07:30;;;;;;;6.85;4.12;;;;;;;8.97;100.00;101030.83;1770510;81;21018;-67
2022/09/06 05:09:57;;;;;;;6.65;4.25;;;;;;;9.02;100.00;101027.25;1770481;81;21233;-67
2022/09/06 05:12:24;;;;;;;12.95;5.35;;;;;;;9.10;100.00;101026.25;1770651;81;21021;-66
2022/09/06 05:14:50;;;;;;;11.18;4.62;;;;;;;9.18;100.00;101025.69;1770725;81;21034;-65
2022/09/06 05:17:17;;;;;;;12.88;5.58;;;;;;;9.31;100.00;101025.88;1770674;80;21068;-66
2022/09/06 05:19:43;;;;;;;10.25;5.05;;;;;;;9.44;100.00;101027.39;1770903;81;21088;-68
2022/09/06 05:22:11;;;;;;;10.98;4.75;;;;;;;9.54;100.00;101030.72;1770922;81;21886;-67
2022/09/06 05:24:37;;;;;;;12.28;5.55;;;;;;;9.64;100.00;101023.09;1770781;81;21593;-67
2022/09/06 05:27:08;;;;;;;9.03;4.60;;;;;;;9.73;100.00;101023.37;1770927;81;21119;-67
2022/09/06 05:29:32;;;;;;;12.10;4.83;;;;;;;9.82;100.00;101024.51;1769989;80;21021;-66
2022/09/06 05:31:59;;;;;;;13.22;5.03;;;;;;;9.90;100.00;101024.34;1770591;81;21576;-67
2022/09/06 05:34:26;;;;;;;9.93;4.50;;;;;;;9.97;100.00;101014.11;1770561;81;21334;-68
2022/09/06 05:36:52;;;;;;;9.10;4.33;;;;;;;10.05;100.00;101016.58;1770724;80;21135;-67
2022/09/06 05:39:20;;;;;;;11.55;3.62;;;;;;;10.13;100.00;101017.30;1770588;81;21116;-66
2022/09/06 05:41:47;;;;;;;18.25;4.70;;;;;;;10.23;100.00;101013.55;1770600;81;21001;-67
2022/09/06 05:44:13;;;;;;;11.35;3.62;;;;;;;10.33;100.00;101013.39;1770676;81;21021;-67
2022/09/06 05:46:44;;;;;;;8.10;3.58;;;;;;;10.43;100.00;101018.89;1770552;81;21856;-66
2022/09/06 05:49:12;;;;;;;9.73;3.80;;;;;;;10.49;99.93;101016.13;1770872;81;25661;-68
2022/09/06 05:51:39;;;;;;;10.13;3.17;;;;;;;10.57;99.01;101018.12;1770932;81;21553;-66
2022/09/06 05:54:11;;;;;;;10.82;3.40;;;;;;;10.60;97.97;101015.41;1762335;81;21002;-66
2022/09/06 05:56:39;;;;;;;4.78;3.30;;;;;;;10.62;97.17;101016.23;1740119;82;21601;-66
2022/09/06 05:59:06;;;;;;;4.78;2.92;;;;;;;10.65;96.17;101023.20;1740056;82;21214;-68
2022/09/06 06:01:32;;;;;;;6.60;3.42;;;;;;;10.68;95.85;101016.56;1740200;82;21006;-67
2022/09/06 06:04:04;;;;;;;6.10;3.30;;;;;;;10.76;95.12;101017.69;1740036;82;21009;-66
2022/09/06 06:06:31;;;;;;;4.03;2.37;;;;;;;10.84;94.42;101019.70;1740142;82;21313;-68
2022/09/06 06:08:58;;;;;;;5.90;2.95;;;;;;;10.95;91.92;101016.79;1740315;82;20993;-68
2022/09/06 06:11:26;;;;;;;7.40;2.52;;;;;;;10.99;91.68;101019.31;1740219;82;21125;-67
2022/09/06 06:13:54;;;;;;;5.60;2.83;;;;;;;11.03;90.53;101021.44;1739966;82;20959;-68
2022/09/06 06:16:21;;;;;;;7.95;3.25;;;;;;;11.09;91.18;101024.80;1740083;82;21089;-67
2022/09/06 06:18:49;;;;;;;20.10;3.62;;;;;;;11.21;91.17;101026.71;1740056;82;21036;-66
2022/09/06 06:21:23;;;;;;;9.70;3.30;;;;;;;11.36;91.54;101026.30;1740191;82;21041;-69
2022/09/06 06:23:53;;;;;;;5.33;2.65;;;;;;;11.54;90.49;101029.77;1739959;82;21240;-67
2022/09/06 06:26:22;;;;;;;17.30;3.40;;;;;;;11.73;90.10;101022.24;1740264;82;21112;-67
2022/09/06 06:28:49;;;;;;;7.37;3.10;;;;;;;11.94;88.84;101027.41;1740101;82;20998;-66
2022/09/06 06:31:15;;;;;;;5.75;3.08;;;;;;;12.15;88.40;101023.73;1740115;82;21691;-67
2022/09/06 06:33:43;;;;;;;5.08;2.98;;;;;;;12.31;86.84;101019.73;1739999;82;21565;-66
2022/09/06 06:36:19;;;;;;;6.15;2.62;;;;;;;12.46;86.37;101023.67;1740228;82;21255;-66
2022/09/06 06:38:45;;;;;;;15.25;4.10;;;;;;;12.66;85.49;101021.73;1744035;82;21021;-67
2022/09/06 06:41:16;;;;;;;5.60;2.80;;;;;;;12.85;84.25;101024.66;1745711;82;21052;-68
2022/09/06 06:43:42;;;;;;;4.42;2.02;;;;;;;12.98;83.44;101027.78;1745582;82;21592;-66
2022/09/06 06:46:12;;;;;;;5.05;2.37;;;;;;;13.08;82.47;101026.55;1745416;82;21049;-68
2022/09/06 06:48:40;;;;;;;7.12;2.30;;;;;;;13.15;81.17;101031.17;1745679;82;21073;-66
2022/09/06 06:51:10;;;;;;;6.05;3.12;;;;;;;13.17;79.70;101027.56;1745492;82;21022;-67
2022/09/06 06:53:36;;;;;;;6.47;3.08;;;;;;;13.18;79.65;101024.02;1747189;80;21024;-69
2022/09/06 06:56:26;;;;;;;14.35;3.35;;;;;;;13.19;79.53;101031.02;1776454;80;21097;-66
2022/09/06 06:58:58;;;;;;;7.12;3.22;;;;;;;13.25;79.46;101023.80;1775590;80;21088;-68
2022/09/06 07:01:26;;;;;;;8.45;3.30;;;;;;;13.29;78.91;101032.07;1776459;80;21780;-67
2022/09/06 07:03:53;;;;;;;6.17;3.90;;;;;;;13.32;78.03;101027.98;1776609;80;21021;-67
2022/09/06 07:06:20;;;;;;;8.55;4.60;;;;;;;13.34;78.23;101028.80;1776489;80;21064;-67
2022/09/06 07:08:47;;;;;;;6.80;4.12;;;;;;;13.37;77.81;101028.72;1776342;80;21581;-67
2022/09/06 07:11:16;;;;;;;12.63;5.35;;;;;;;13.43;77.63;101035.99;1776561;80;21453;-66
2022/09/06 07:13:43;;;;;;;10.58;5.90;;;;;;;13.52;76.81;101032.14;1776305;80;22046;-68
2022/09/06 07:16:17;;;;;;;10.78;5.40;;;;;;;13.59;75.99;101035.44;1776320;80;21029;-67
2022/09/06 07:18:44;;;;;;;15.13;6.10;;;;;;;13.61;76.02;101035.78;1776427;80;21025;-66
2022/09/06 07:21:19;;;;;;;10.63;5.80;;;;;;;13.64;75.66;101033.05;1776814;80;21491;-67
2022/09/06 07:23:47;;;;;;;10.20;4.70;;;;;;;13.73;75.89;101038.92;1776528;80;21025;-68
2022/09/06 07:26:19;;;;;;;10.48;5.28;;;;;;;13.79;75.92;101036.06;1776956;80;21140;-67
2022/09/06 07:28:46;;;;;;;9.20;5.05;;;;;;;13.83;74.74;101028.42;1776520;80;21557;-68
2022/09/06 07:31:13;;;;;;;10.10;5.78;;;;;;;13.87;74.45;101023.39;1776224;80;21890;-68
2022/09/06 07:33:40;;;;;;;11.15;5.30;;;;;;;13.91;73.39;101024.16;1776025;80;21541;-68
2022/09/06 07:36:07;;;;;;;9.38;4.95;;;;;;;13.96;74.85;101027.50;1776629;80;21048;-68
2022/09/06 07:38:35;;;;;;;7.67;4.78;;;;;;;14.09;74.57;101022.63;1770454;80;21141;-67
2022/09/06 07:41:07;;;;;;;9.08;4.90;;;;;;;14.21;72.34;101016.85;1766566;81;21092;-68
2022/09/06 07:43:33;;;;;;;7.92;4.90;;;;;;;14.25;71.01;101023.77;1766717;80;21021;-67
2022/09/06 07:46:05;;;;;;;9.25;5.30;;;;;;;14.35;70.78;101025.12;1766508;81;21660;-65
2022/09/06 07:48:35;;;;;;;11.88;5.62;;;;;;;14.46;68.80;101020.28;1766637;80;21001;-67
2022/09/06 07:51:16;;;;;;;10.88;6.05;;;;;;;14.50;68.75;101026.81;1766681;81;21129;-68
2022/09/06 07:53:49;;;;;;;11.43;6.75;;;;;;;14.59;66.69;101024.69;1762766;81;21057;-68
2022/09/06 07:56:16;;;;;;;10.03;6.40;;;;;;;14.65;65.28;101023.56;1712164;82;21037;-68
2022/09/06 07:58:43;;;;;;;12.68;7.35;;;;;;;14.68;65.16;101019.48;1735779;82;21049;-67
2022/09/06 08:01:29;;;;;;;13.20;7.05;;;;;;;14.81;64.70;101018.05;1735926;82;21549;-66
2022/09/06 08:03:57;;;;;;;14.65;7.55;;;;;;;15.15;64.97;101015.34;1736004;82;21085;-67
2022/09/06 08:06:26;;;;;;;12.55;6.30;;;;;;;15.73;63.60;101004.91;1735915;82;21037;-66
2022/09/06 08:08:53;;;;;;;15.05;7.15;;;;;;;16.30;56.41;100994.79;1736024;81;21064;-68
2022/09/06 08:11:21;;;;;;;10.20;5.75;;;;;;;17.06;52.88;100998.68;1735860;82;21494;-68
2022/09/06 08:13:50;;;;;;;11.25;6.35;;;;;;;17.71;47.39;101003.72;1735763;82;22145;-69
2022/09/06 08:16:19;;;;;;;7.70;5.03;;;;;;;18.43;47.13;100995.00;1736192;82;20994;-68
2022/09/06 08:18:55;;;;;;;12.15;5.85;;;;;;;19.10;44.83;100992.10;1735942;81;21594;-68
2022/09/06 08:21:23;;;;;;;8.93;4.50;;;;;;;19.73;43.30;100982.50;1736306;82;22110;-68
2022/09/06 08:24:04;;;;;;;8.98;5.42;;;;;;;20.20;38.87;100976.45;1735893;82;21021;-68
2022/09/06 08:26:31;;;;;;;;;;;;;;;20.17;38.65;100980.19;1738675;82;21049;-69
2022/09/06 08:29:02;;;;;;;7.10;4.80;;;;;;;20.01;38.99;100980.78;1736416;82;21084;-68
2022/09/06 08:31:30;;;;;;;7.92;4.30;;;;;;;19.73;38.46;100982.50;1735681;82;20970;-68
2022/09/06 08:33:58;;;;;;;8.48;4.75;;;;;;;19.44;39.13;100986.46;1735946;82;21088;-68
2022/09/06 08:36:30;;;;;;;8.05;5.17;;;;;;;19.00;39.56;100984.63;1735971;82;21005;-68
2022/09/06 08:38:59;;;;;;;8.38;5.15;;;;;;;18.59;39.71;100989.18;1738214;82;21093;-68
2022/09/06 08:41:39;;;;;;;9.20;5.17;;;;;;;18.24;40.96;100972.03;1740505;82;21192;-68
2022/09/06 08:44:10;;;;;;;22.67;6.35;;;;;;;17.88;41.31;100975.38;1740178;82;21021;-67
2022/09/06 08:46:43;;;;;;;9.83;5.80;;;;;;;17.69;41.15;100979.00;1740644;82;21076;-68
2022/09/06 08:49:10;;;;;;;15.55;7.53;;;;;;;17.81;41.16;100974.37;1739757;82;21040;-69
2022/09/06 08:52:09;;;;;;;16.62;8.60;;;;;;;18.33;39.61;100973.30;1740409;82;21060;-67
2022/09/06 08:55:10;;;;;;;25.10;8.68;;;;;;;18.80;39.26;100959.58;1754588;81;21076;-68
2022/09/06 08:58:19;;;;;;;10.78;6.17;;;;;;;19.03;38.25;100956.41;1770658;81;21021;-69
2022/09/06 09:00:59;;;;;;;13.08;8.70;;;;;;;18.92;38.39;100958.85;1770732;81;21478;-68
2022/09/06 09:03:32;;;;;;;12.30;7.17;;;;;;;18.60;38.12;100961.55;1770839;80;21069;-67
2022/09/06 09:06:00;;;;;;;22.07;13.05;;;;;;;18.20;38.29;100957.14;1770198;80;21005;-69
2022/09/06 09:08:48;;;;;;;16.10;8.28;;;;;;;17.89;39.10;100967.28;1770762;80;21053;-67
2022/09/06 09:11:18;;;;;;;14.78;8.75;;;;;;;17.60;39.41;100968.84;1770915;80;21038;-68
2022/09/06 09:14:23;;;;;;;14.58;7.97;;;;;;;17.22;41.26;100971.67;1770488;80;21028;-68
2022/09/06 09:16:52;;;;;;;18.35;9.33;;;;;;;16.98;41.46;100965.81;1770347;81;21025;-67
2022/09/06 09:19:19;;;;;;;17.07;10.23;;;;;;;16.74;41.35;100966.52;1768516;81;21045;-69
2022/09/06 09:21:45;;;;;;;17.60;8.90;;;;;;;16.52;41.26;100960.94;1770658;80;22087;-68
2022/09/06 09:24:14;;;;;;;14.35;7.50;;;;;;;16.35;41.71;100959.07;1770456;80;21490;-68
2022/09/06 09:27:04;;;;;;;17.75;9.98;;;;;;;16.33;41.47;100956.09;1770855;80;20982;-68
2022/09/06 09:29:31;;;;;;;19.10;10.30;;;;;;;16.40;41.58;100956.19;1770849;80;21029;-68
2022/09/06 09:31:58;;;;;;;20.00;9.35;;;;;;;16.41;41.58;100954.42;1770846;81;21525;-67
2022/09/06 09:34:32;;;;;;;19.77;11.83;;;;;;;16.39;41.91;100948.31;1770642;81;21184;-68
2022/09/06 09:37:21;;;;;;;22.60;12.37;;;;;;;16.39;42.17;100959.80;1770634;80;21038;-68
2022/09/06 09:39:49;;;;;;;20.37;13.65;;;;;;;16.34;42.91;100960.49;1774987;80;21088;-67
2022/09/06 09:42:27;;;;;;;25.37;13.80;;;;;;;16.25;43.41;100956.95;1776275;80;21561;-67
2022/09/06 09:44:55;;;;;;;32.38;16.57;;;;;;;16.22;43.73;100958.39;1776011;80;21083;-68
2022/09/06 09:47:27;;;;;;;27.62;15.88;;;;;;;16.25;43.58;100959.60;1776323;80;21106;-67
2022/09/06 09:49:55;;;;;;;29.50;17.02;;;;;;;16.30;43.41;100954.92;1776382;80;21033;-67
2022/09/06 09:52:29;;;;;;;26.30;16.25;;;;;;;16.32;43.32;100958.38;1776510;80;21753;-66
2022/09/06 09:55:01;;;;;;;29.40;16.05;;;;;;;16.36;43.28;100959.95;1757433;80;21084;-68
2022/09/06 09:57:30;;;;;;;25.65;16.20;;;;;;;16.33;41.98;100952.11;1745654;82;21040;-67
2022/09/06 09:59:59;;;;;;;27.22;15.63;;;;;;;16.28;42.55;100954.13;1745216;82;21143;-68
2022/09/06 10:02:35;;;;;;;29.05;17.37;;;;;;;16.30;43.12;100958.91;1745501;82;21036;-68
2022/09/06 10:05:10;;;;;;;27.22;15.80;;;;;;;16.36;43.56;100958.63;1745734;82;21044;-67
2022/09/06 10:07:47;;;;;;;24.05;14.83;;;;;;;16.39;43.06;100950.97;1744684;82;21033;-68
2022/09/06 10:10:21;;;;;;;31.85;17.37;;;;;;;16.35;44.43;100948.91;1746007;82;21080;-68
2022/09/06 10:12:48;;;;;;;30.80;17.37;;;;;;;16.27;44.27;100953.75;1745753;82;21107;-68
2022/09/06 10:15:37;;;;;;;38.65;20.35;;;;;;;16.14;43.55;100955.64;1745819;82;21076;-68
2022/09/06 10:18:27;;;;;;;32.63;18.50;;;;;;;16.08;43.22;100951.08;1745798;82;21002;-66
2022/09/06 10:21:22;;;;;;;33.53;16.97;;;;;;;16.02;43.57;100953.56;1745901;82;21025;-68
2022/09/06 10:24:21;;;;;;;27.52;15.40;;;;;;;16.00;43.17;100943.47;1745789;82;21084;-67
2022/09/06 10:26:57;;;;;;;25.70;14.75;;;;;;;16.06;43.94;100943.20;1746140;82;21421;-67
2022/09/06 10:29:41;;;;;;;36.38;18.40;;;;;;;16.26;43.26;100942.70;1745562;82;21028;-68
2022/09/06 10:32:25;;;;;;;42.95;19.60;;;;;;;16.29;41.47;100941.25;1745918;82;21060;-68
2022/09/06 10:35:25;;;;;;;50.43;21.42;;;;;;;16.28;42.44;100932.87;1745752;82;21021;-68
2022/09/06 10:38:06;;;;;;;34.00;19.00;;;;;;;16.34;42.04;100935.23;1745322;82;21036;-67
2022/09/06 10:40:47;;;;;;;32.03;17.02;;;;;;;16.33;42.67;100933.50;1739894;82;21208;-67
2022/09/06 10:43:17;;;;;;;60.73;22.15;;;;;;;16.35;42.69;100936.95;1736698;82;21565;-68
2022/09/06 10:46:03;;;;;;;66.45;26.80;;;;;;;16.31;43.44;100938.02;1740287;82;21663;-66
2022/09/06 10:48:41;;;;;;;48.52;26.12;;;;;;;16.26;42.92;100940.05;1740605;82;21490;-66
2022/09/06 10:51:37;;;;;;;55.10;28.80;;;;;;;16.17;43.38;100941.81;1719301;82;21556;-68
2022/09/06 10:54:13;;;;;;;45.40;20.48;;;;;;;16.02;43.61;100938.95;1741389;82;21772;-68
2022/09/06 10:57:02;;;;;;;33.65;15.43;;;;;;;15.88;42.71;100933.43;1740465;82;21045;-67
2022/09/06 10:59:41;;;;;;;34.50;15.70;;;;;;;15.71;43.13;100937.73;1739702;82;21013;-67
2022/09/06 11:02:44;;;;;;;32.00;15.23;;;;;;;15.61;42.62;100935.04;1740023;82;21080;-67
2022/09/06 11:05:14;;;;;;;36.10;15.58;;;;;;;15.55;43.53;100948.58;1740587;82;21044;-68
2022/09/06 11:07:43;;;;;;;32.75;17.23;;;;;;;15.60;43.33;100945.28;1740123;82;21190;-67
2022/09/06 11:10:24;;;;;;;34.60;14.73;;;;;;;15.64;43.42;100945.52;1740492;82;21009;-66
2022/09/06 11:13:10;;;;;;;25.12;14.15;;;;;;;15.68;44.05;100939.14;1740270;82;21031;-66
2022/09/06 11:16:04;;;;;;;30.27;15.13;;;;;;;15.73;44.36;100929.23;1740162;82;21536;-67
2022/09/06 11:18:39;;;;;;;34.18;16.73;;;;;;;15.77;43.44;100938.37;1740558;82;21652;-68
2022/09/06 11:21:29;;;;;;;29.77;15.03;;;;;;;15.72;43.47;100933.27;1719625;82;21096;-67
2022/09/06 11:24:16;;;;;;;23.00;12.18;;;;;;;15.73;43.93;100934.54;1740598;82;21040;-69
2022/09/06 11:27:18;;;;;;;20.82;11.38;;;;;;;15.77;43.63;100937.05;1740492;82;21466;-68
2022/09/06 11:29:47;;;;;;;20.52;10.72;;;;;;;15.81;44.58;100939.96;1740132;82;21061;-69
2022/09/06 11:32:49;;;;;;;24.12;10.55;;;;;;;15.90;45.06;100935.55;1740330;82;21534;-66
2022/09/06 11:35:29;;;;;;;18.95;10.75;;;;;;;15.86;44.09;100939.27;1740491;82;21294;-67
2022/09/06 11:38:20;;;;;;;21.55;11.30;;;;;;;15.75;44.87;100938.91;1740509;82;24341;-68
2022/09/06 11:40:54;;;;;;;21.55;12.53;;;;;;;15.62;44.91;100934.12;1743622;82;21029;-69
2022/09/06 11:43:48;;;;;;;23.22;12.40;;;;;;;15.46;46.57;100936.61;1745294;82;21537;-68
2022/09/06 11:46:41;;;;;;;19.07;12.20;;;;;;;15.36;46.97;100939.72;1745784;82;21561;-67
2022/09/06 11:49:24;;;;;;;25.57;11.68;;;;;;;15.22;46.64;100943.84;1745940;82;21270;-66
2022/09/06 11:51:50;;;;;;;25.77;11.80;;;;;;;15.12;46.30;100938.55;1745748;82;21655;-67